sensor_id;sensor_type;location;lat;lon;timestamp;P1;durP1;ratioP1;P2;durP2;ratioP2
19505;SDS011;9894;50.852;-0.140;2023-05-10T00:02:15;0.10;;;0.10;;
19505;SDS011;9894;50.852;-0.140;2023-05-10T00:04:41;0.10;;;0.10;;
19505;SDS011;9894;50.852;-0.140;2023-05-10T00:07:07;0.10;;;0.10;;
19505;SDS011;9894;50.852;-0.140;2023-05-10T00:09:33;0.08;;;0.08;;
19505;SDS011;9894;50.852;-0.140;2023-05-10T00:11:59;0.10;;;0.10;;
19505;SDS011;9894;50.852;-0.140;2023-05-10T00:14:25;0.10;;;0.10;;
19505;SDS011;9894;50.852;-0.140;2023-05-10T00:16:52;0.10;;;0.10;;
19505;SDS011;9894;50.852;-0.140;2023-05-10T00:19:18;0.10;;;0.10;;
19505;SDS011;9894;50.852;-0.140;2023-05-10T00:21:44;0.10;;;0.10;;
19505;SDS011;9894;50.852;-0.140;2023-05-10T00:24:10;0.10;;;0.10;;
19505;SDS011;9894;50.852;-0.140;2023-05-10T00:26:36;0.20;;;0.20;;
19505;SDS011;9894;50.852;-0.140;2023-05-10T00:29:02;0.10;;;0.10;;
19505;SDS011;9894;50.852;-0.140;2023-05-10T00:31:28;0.10;;;0.10;;
19505;SDS011;9894;50.852;-0.140;2023-05-10T00:33:55;0.10;;;0.10;;
19505;SDS011;9894;50.852;-0.140;2023-05-10T00:36:21;0.10;;;0.10;;
19505;SDS011;9894;50.852;-0.140;2023-05-10T00:38:47;0.20;;;0.20;;
19505;SDS011;9894;50.852;-0.140;2023-05-10T00:41:13;0.40;;;0.40;;
19505;SDS011;9894;50.852;-0.140;2023-05-10T00:43:40;0.03;;;0.03;;
19505;SDS011;9894;50.852;-0.140;2023-05-10T00:46:06;0.60;;;0.40;;
19505;SDS011;9894;50.852;-0.140;2023-05-10T00:48:33;0.10;;;0.10;;
19505;SDS011;9894;50.852;-0.140;2023-05-10T00:51:00;0.13;;;0.13;;
19505;SDS011;9894;50.852;-0.140;2023-05-10T00:53:26;0.10;;;0.10;;
19505;SDS011;9894;50.852;-0.140;2023-05-10T00:55:52;0.10;;;0.10;;
19505;SDS011;9894;50.852;-0.140;2023-05-10T00:58:19;0.10;;;0.10;;
19505;SDS011;9894;50.852;-0.140;2023-05-10T01:00:45;0.10;;;0.10;;
19505;SDS011;9894;50.852;-0.140;2023-05-10T01:03:13;0.10;;;0.10;;
19505;SDS011;9894;50.852;-0.140;2023-05-10T01:05:39;0.20;;;0.20;;
19505;SDS011;9894;50.852;-0.140;2023-05-10T01:08:06;0.00;;;0.00;;
19505;SDS011;9894;50.852;-0.140;2023-05-10T01:10:33;0.10;;;0.10;;
19505;SDS011;9894;50.852;-0.140;2023-05-10T01:13:00;0.10;;;0.10;;
19505;SDS011;9894;50.852;-0.140;2023-05-10T01:15:26;0.10;;;0.10;;
19505;SDS011;9894;50.852;-0.140;2023-05-10T01:17:52;0.10;;;0.10;;
19505;SDS011;9894;50.852;-0.140;2023-05-10T01:20:19;0.00;;;0.00;;
19505;SDS011;9894;50.852;-0.140;2023-05-10T01:30:30;7.50;;;1.42;;
19505;SDS011;9894;50.852;-0.140;2023-05-10T01:38:29;0.15;;;0.15;;
19505;SDS011;9894;50.852;-0.140;2023-05-10T01:43:48;3.03;;;1.58;;
19505;SDS011;9894;50.852;-0.140;2023-05-10T01:46:17;0.00;;;0.00;;
19505;SDS011;9894;50.852;-0.140;2023-05-10T01:48:47;0.00;;;0.00;;
19505;SDS011;9894;50.852;-0.140;2023-05-10T01:51:17;0.10;;;0.10;;
19505;SDS011;9894;50.852;-0.140;2023-05-10T01:53:46;0.68;;;0.52;;
19505;SDS011;9894;50.852;-0.140;2023-05-10T01:56:13;0.10;;;0.10;;
19505;SDS011;9894;50.852;-0.140;2023-05-10T01:58:41;0.00;;;0.00;;
19505;SDS011;9894;50.852;-0.140;2023-05-10T02:01:10;0.10;;;0.10;;
19505;SDS011;9894;50.852;-0.140;2023-05-10T02:03:37;0.10;;;0.10;;
19505;SDS011;9894;50.852;-0.140;2023-05-10T02:06:04;0.10;;;0.10;;
19505;SDS011;9894;50.852;-0.140;2023-05-10T02:08:32;0.10;;;0.10;;
19505;SDS011;9894;50.852;-0.140;2023-05-10T02:11:00;0.10;;;0.10;;
19505;SDS011;9894;50.852;-0.140;2023-05-10T02:13:27;0.10;;;0.10;;
19505;SDS011;9894;50.852;-0.140;2023-05-10T02:15:54;0.10;;;0.10;;
19505;SDS011;9894;50.852;-0.140;2023-05-10T02:18:20;0.00;;;0.00;;
19505;SDS011;9894;50.852;-0.140;2023-05-10T02:20:48;0.05;;;0.05;;
19505;SDS011;9894;50.852;-0.140;2023-05-10T02:23:14;0.10;;;0.10;;
19505;SDS011;9894;50.852;-0.140;2023-05-10T02:25:41;0.10;;;0.10;;
19505;SDS011;9894;50.852;-0.140;2023-05-10T02:28:09;0.30;;;0.30;;
19505;SDS011;9894;50.852;-0.140;2023-05-10T02:30:36;0.10;;;0.10;;
19505;SDS011;9894;50.852;-0.140;2023-05-10T02:33:03;0.10;;;0.10;;
19505;SDS011;9894;50.852;-0.140;2023-05-10T02:35:30;0.10;;;0.10;;
19505;SDS011;9894;50.852;-0.140;2023-05-10T02:37:58;0.10;;;0.10;;
19505;SDS011;9894;50.852;-0.140;2023-05-10T02:40:25;0.10;;;0.10;;
19505;SDS011;9894;50.852;-0.140;2023-05-10T02:42:52;0.10;;;0.10;;
19505;SDS011;9894;50.852;-0.140;2023-05-10T02:45:20;0.10;;;0.10;;
19505;SDS011;9894;50.852;-0.140;2023-05-10T02:47:48;0.35;;;0.35;;
19505;SDS011;9894;50.852;-0.140;2023-05-10T02:50:14;0.10;;;0.10;;
19505;SDS011;9894;50.852;-0.140;2023-05-10T02:52:42;0.10;;;0.10;;
19505;SDS011;9894;50.852;-0.140;2023-05-10T02:55:09;0.10;;;0.10;;
19505;SDS011;9894;50.852;-0.140;2023-05-10T02:57:39;0.10;;;0.10;;
19505;SDS011;9894;50.852;-0.140;2023-05-10T03:00:06;0.10;;;0.10;;
19505;SDS011;9894;50.852;-0.140;2023-05-10T03:02:33;0.10;;;0.10;;
19505;SDS011;9894;50.852;-0.140;2023-05-10T03:04:59;0.10;;;0.10;;
19505;SDS011;9894;50.852;-0.140;2023-05-10T03:07:25;0.10;;;0.10;;
19505;SDS011;9894;50.852;-0.140;2023-05-10T03:09:51;0.38;;;0.38;;
19505;SDS011;9894;50.852;-0.140;2023-05-10T03:12:21;0.10;;;0.10;;
19505;SDS011;9894;50.852;-0.140;2023-05-10T03:19:57;0.30;;;0.30;;
19505;SDS011;9894;50.852;-0.140;2023-05-10T03:22:37;5.93;;;2.05;;
19505;SDS011;9894;50.852;-0.140;2023-05-10T03:25:05;0.60;;;0.57;;
19505;SDS011;9894;50.852;-0.140;2023-05-10T03:27:32;1.15;;;1.05;;
19505;SDS011;9894;50.852;-0.140;2023-05-10T03:29:58;0.30;;;0.30;;
19505;SDS011;9894;50.852;-0.140;2023-05-10T03:32:25;0.10;;;0.10;;
19505;SDS011;9894;50.852;-0.140;2023-05-10T03:34:52;2.25;;;1.23;;
19505;SDS011;9894;50.852;-0.140;2023-05-10T03:37:18;0.13;;;0.13;;
19505;SDS011;9894;50.852;-0.140;2023-05-10T03:39:44;0.13;;;0.13;;
19505;SDS011;9894;50.852;-0.140;2023-05-10T03:42:10;0.10;;;0.10;;
19505;SDS011;9894;50.852;-0.140;2023-05-10T03:44:37;0.10;;;0.10;;
19505;SDS011;9894;50.852;-0.140;2023-05-10T03:47:03;0.10;;;0.10;;
19505;SDS011;9894;50.852;-0.140;2023-05-10T03:49:30;0.10;;;0.10;;
19505;SDS011;9894;50.852;-0.140;2023-05-10T03:51:56;0.30;;;0.28;;
19505;SDS011;9894;50.852;-0.140;2023-05-10T03:54:22;0.10;;;0.10;;
19505;SDS011;9894;50.852;-0.140;2023-05-10T03:56:48;1.35;;;0.55;;
19505;SDS011;9894;50.852;-0.140;2023-05-10T03:59:14;0.10;;;0.10;;
19505;SDS011;9894;50.852;-0.140;2023-05-10T04:01:40;0.40;;;0.40;;
19505;SDS011;9894;50.852;-0.140;2023-05-10T04:04:06;0.10;;;0.10;;
19505;SDS011;9894;50.852;-0.140;2023-05-10T04:06:32;0.10;;;0.10;;
19505;SDS011;9894;50.852;-0.140;2023-05-10T04:08:58;0.10;;;0.10;;
19505;SDS011;9894;50.852;-0.140;2023-05-10T04:11:28;0.15;;;0.15;;
19505;SDS011;9894;50.852;-0.140;2023-05-10T04:13:55;0.10;;;0.10;;
19505;SDS011;9894;50.852;-0.140;2023-05-10T04:16:21;0.10;;;0.10;;
19505;SDS011;9894;50.852;-0.140;2023-05-10T04:18:47;0.68;;;0.43;;
19505;SDS011;9894;50.852;-0.140;2023-05-10T04:21:13;0.20;;;0.20;;
19505;SDS011;9894;50.852;-0.140;2023-05-10T04:23:40;0.10;;;0.10;;
19505;SDS011;9894;50.852;-0.140;2023-05-10T04:26:06;0.10;;;0.10;;
19505;SDS011;9894;50.852;-0.140;2023-05-10T04:28:33;0.10;;;0.10;;
19505;SDS011;9894;50.852;-0.140;2023-05-10T04:31:06;0.20;;;0.20;;
19505;SDS011;9894;50.852;-0.140;2023-05-10T04:33:32;0.10;;;0.10;;
19505;SDS011;9894;50.852;-0.140;2023-05-10T04:35:59;0.10;;;0.10;;
19505;SDS011;9894;50.852;-0.140;2023-05-10T04:38:26;0.10;;;0.10;;
19505;SDS011;9894;50.852;-0.140;2023-05-10T04:40:52;0.10;;;0.10;;
19505;SDS011;9894;50.852;-0.140;2023-05-10T04:43:18;0.10;;;0.10;;
19505;SDS011;9894;50.852;-0.140;2023-05-10T04:45:45;0.10;;;0.10;;
19505;SDS011;9894;50.852;-0.140;2023-05-10T04:48:11;0.35;;;0.35;;
19505;SDS011;9894;50.852;-0.140;2023-05-10T04:50:37;0.30;;;0.30;;
19505;SDS011;9894;50.852;-0.140;2023-05-10T04:53:03;0.10;;;0.10;;
19505;SDS011;9894;50.852;-0.140;2023-05-10T04:55:29;0.20;;;0.20;;
19505;SDS011;9894;50.852;-0.140;2023-05-10T04:57:56;0.10;;;0.10;;
19505;SDS011;9894;50.852;-0.140;2023-05-10T05:00:22;0.10;;;0.10;;
19505;SDS011;9894;50.852;-0.140;2023-05-10T05:02:49;0.10;;;0.10;;
19505;SDS011;9894;50.852;-0.140;2023-05-10T05:05:16;0.80;;;0.75;;
19505;SDS011;9894;50.852;-0.140;2023-05-10T05:07:42;0.10;;;0.10;;
19505;SDS011;9894;50.852;-0.140;2023-05-10T05:10:08;0.10;;;0.10;;
19505;SDS011;9894;50.852;-0.140;2023-05-10T05:12:35;0.22;;;0.20;;
19505;SDS011;9894;50.852;-0.140;2023-05-10T05:15:01;0.20;;;0.20;;
19505;SDS011;9894;50.852;-0.140;2023-05-10T05:17:27;0.80;;;0.20;;
19505;SDS011;9894;50.852;-0.140;2023-05-10T05:19:55;0.55;;;0.30;;
19505;SDS011;9894;50.852;-0.140;2023-05-10T05:22:21;0.10;;;0.10;;
19505;SDS011;9894;50.852;-0.140;2023-05-10T05:24:56;0.10;;;0.10;;
19505;SDS011;9894;50.852;-0.140;2023-05-10T05:27:23;0.10;;;0.10;;
19505;SDS011;9894;50.852;-0.140;2023-05-10T05:29:54;0.10;;;0.10;;
19505;SDS011;9894;50.852;-0.140;2023-05-10T05:32:21;0.35;;;0.28;;
19505;SDS011;9894;50.852;-0.140;2023-05-10T05:34:47;0.20;;;0.20;;
19505;SDS011;9894;50.852;-0.140;2023-05-10T05:37:17;0.10;;;0.10;;
19505;SDS011;9894;50.852;-0.140;2023-05-10T05:39:44;0.77;;;0.75;;
19505;SDS011;9894;50.852;-0.140;2023-05-10T05:42:11;0.10;;;0.10;;
19505;SDS011;9894;50.852;-0.140;2023-05-10T05:44:37;0.10;;;0.10;;
19505;SDS011;9894;50.852;-0.140;2023-05-10T05:47:03;0.10;;;0.10;;
19505;SDS011;9894;50.852;-0.140;2023-05-10T05:49:30;1.65;;;0.68;;
19505;SDS011;9894;50.852;-0.140;2023-05-10T05:51:59;0.15;;;0.15;;
19505;SDS011;9894;50.852;-0.140;2023-05-10T05:54:26;0.47;;;0.45;;
19505;SDS011;9894;50.852;-0.140;2023-05-10T05:56:55;0.20;;;0.20;;
19505;SDS011;9894;50.852;-0.140;2023-05-10T05:59:21;5.50;;;2.45;;
19505;SDS011;9894;50.852;-0.140;2023-05-10T06:01:48;1.15;;;0.95;;
19505;SDS011;9894;50.852;-0.140;2023-05-10T06:04:14;2.28;;;1.08;;
19505;SDS011;9894;50.852;-0.140;2023-05-10T06:06:40;2.20;;;1.35;;
19505;SDS011;9894;50.852;-0.140;2023-05-10T06:09:07;0.40;;;0.40;;
19505;SDS011;9894;50.852;-0.140;2023-05-10T06:11:33;0.13;;;0.13;;
19505;SDS011;9894;50.852;-0.140;2023-05-10T06:14:00;0.10;;;0.10;;
19505;SDS011;9894;50.852;-0.140;2023-05-10T06:16:26;1.55;;;0.80;;
19505;SDS011;9894;50.852;-0.140;2023-05-10T06:18:53;0.30;;;0.30;;
19505;SDS011;9894;50.852;-0.140;2023-05-10T06:21:19;0.30;;;0.30;;
19505;SDS011;9894;50.852;-0.140;2023-05-10T06:23:45;0.10;;;0.10;;
19505;SDS011;9894;50.852;-0.140;2023-05-10T06:26:11;0.90;;;0.28;;
19505;SDS011;9894;50.852;-0.140;2023-05-10T06:28:38;7.78;;;1.55;;
19505;SDS011;9894;50.852;-0.140;2023-05-10T06:31:05;9.73;;;1.63;;
19505;SDS011;9894;50.852;-0.140;2023-05-10T06:33:31;0.10;;;0.10;;
19505;SDS011;9894;50.852;-0.140;2023-05-10T06:35:57;0.10;;;0.10;;
19505;SDS011;9894;50.852;-0.140;2023-05-10T06:38:23;0.00;;;0.00;;
19505;SDS011;9894;50.852;-0.140;2023-05-10T06:40:49;0.10;;;0.10;;
19505;SDS011;9894;50.852;-0.140;2023-05-10T06:43:16;0.90;;;0.55;;
19505;SDS011;9894;50.852;-0.140;2023-05-10T06:45:42;0.10;;;0.10;;
19505;SDS011;9894;50.852;-0.140;2023-05-10T06:48:08;10.45;;;0.63;;
19505;SDS011;9894;50.852;-0.140;2023-05-10T06:50:34;0.47;;;0.40;;
19505;SDS011;9894;50.852;-0.140;2023-05-10T06:53:01;0.30;;;0.30;;
19505;SDS011;9894;50.852;-0.140;2023-05-10T06:55:27;0.10;;;0.10;;
19505;SDS011;9894;50.852;-0.140;2023-05-10T06:57:54;0.10;;;0.10;;
19505;SDS011;9894;50.852;-0.140;2023-05-10T07:00:20;5.85;;;0.30;;
19505;SDS011;9894;50.852;-0.140;2023-05-10T07:02:46;0.10;;;0.10;;
19505;SDS011;9894;50.852;-0.140;2023-05-10T07:05:13;0.30;;;0.30;;
19505;SDS011;9894;50.852;-0.140;2023-05-10T07:07:40;0.20;;;0.20;;
19505;SDS011;9894;50.852;-0.140;2023-05-10T07:10:06;0.00;;;0.00;;
19505;SDS011;9894;50.852;-0.140;2023-05-10T07:12:33;0.10;;;0.10;;
19505;SDS011;9894;50.852;-0.140;2023-05-10T07:14:59;0.22;;;0.22;;
19505;SDS011;9894;50.852;-0.140;2023-05-10T07:17:25;0.10;;;0.10;;
19505;SDS011;9894;50.852;-0.140;2023-05-10T07:19:51;0.20;;;0.20;;
19505;SDS011;9894;50.852;-0.140;2023-05-10T07:22:17;0.10;;;0.10;;
19505;SDS011;9894;50.852;-0.140;2023-05-10T07:24:43;0.10;;;0.10;;
19505;SDS011;9894;50.852;-0.140;2023-05-10T07:27:09;0.10;;;0.10;;
19505;SDS011;9894;50.852;-0.140;2023-05-10T07:29:35;6.65;;;1.65;;
19505;SDS011;9894;50.852;-0.140;2023-05-10T07:32:02;0.90;;;0.45;;
19505;SDS011;9894;50.852;-0.140;2023-05-10T07:34:28;0.10;;;0.10;;
19505;SDS011;9894;50.852;-0.140;2023-05-10T07:36:58;0.10;;;0.10;;
19505;SDS011;9894;50.852;-0.140;2023-05-10T07:39:27;0.10;;;0.10;;
19505;SDS011;9894;50.852;-0.140;2023-05-10T07:41:54;0.10;;;0.10;;
19505;SDS011;9894;50.852;-0.140;2023-05-10T07:44:21;1.65;;;1.55;;
19505;SDS011;9894;50.852;-0.140;2023-05-10T07:46:47;0.20;;;0.20;;
19505;SDS011;9894;50.852;-0.140;2023-05-10T07:49:13;0.10;;;0.10;;
19505;SDS011;9894;50.852;-0.140;2023-05-10T07:51:39;0.10;;;0.10;;
19505;SDS011;9894;50.852;-0.140;2023-05-10T07:54:06;0.10;;;0.10;;
19505;SDS011;9894;50.852;-0.140;2023-05-10T07:56:32;0.10;;;0.10;;
19505;SDS011;9894;50.852;-0.140;2023-05-10T07:58:59;0.20;;;0.17;;
19505;SDS011;9894;50.852;-0.140;2023-05-10T08:01:26;0.10;;;0.10;;
19505;SDS011;9894;50.852;-0.140;2023-05-10T08:03:52;0.10;;;0.10;;
19505;SDS011;9894;50.852;-0.140;2023-05-10T08:06:18;0.13;;;0.13;;
19505;SDS011;9894;50.852;-0.140;2023-05-10T08:08:48;0.47;;;0.47;;
19505;SDS011;9894;50.852;-0.140;2023-05-10T08:11:18;2.95;;;1.38;;
19505;SDS011;9894;50.852;-0.140;2023-05-10T08:13:45;0.20;;;0.20;;
19505;SDS011;9894;50.852;-0.140;2023-05-10T08:16:12;0.32;;;0.32;;
19505;SDS011;9894;50.852;-0.140;2023-05-10T08:18:38;2.85;;;0.68;;
19505;SDS011;9894;50.852;-0.140;2023-05-10T08:21:05;0.30;;;0.30;;
19505;SDS011;9894;50.852;-0.140;2023-05-10T08:23:32;0.40;;;0.40;;
19505;SDS011;9894;50.852;-0.140;2023-05-10T08:25:58;0.57;;;0.57;;
19505;SDS011;9894;50.852;-0.140;2023-05-10T08:28:24;5.22;;;1.35;;
19505;SDS011;9894;50.852;-0.140;2023-05-10T08:30:50;0.80;;;0.40;;
19505;SDS011;9894;50.852;-0.140;2023-05-10T08:33:17;4.28;;;1.55;;
19505;SDS011;9894;50.852;-0.140;2023-05-10T08:35:44;0.75;;;0.75;;
19505;SDS011;9894;50.852;-0.140;2023-05-10T08:38:10;1.52;;;1.35;;
19505;SDS011;9894;50.852;-0.140;2023-05-10T08:40:37;0.10;;;0.10;;
19505;SDS011;9894;50.852;-0.140;2023-05-10T08:43:04;0.10;;;0.10;;
19505;SDS011;9894;50.852;-0.140;2023-05-10T08:45:32;0.22;;;0.22;;
19505;SDS011;9894;50.852;-0.140;2023-05-10T08:47:59;0.43;;;0.43;;
19505;SDS011;9894;50.852;-0.140;2023-05-10T08:50:25;0.90;;;0.57;;
19505;SDS011;9894;50.852;-0.140;2023-05-10T08:52:51;0.30;;;0.30;;
19505;SDS011;9894;50.852;-0.140;2023-05-10T08:55:18;2.28;;;0.95;;
19505;SDS011;9894;50.852;-0.140;2023-05-10T08:57:44;3.63;;;1.10;;
19505;SDS011;9894;50.852;-0.140;2023-05-10T09:00:11;0.22;;;0.22;;
19505;SDS011;9894;50.852;-0.140;2023-05-10T09:02:38;2.63;;;1.30;;
19505;SDS011;9894;50.852;-0.140;2023-05-10T09:05:04;2.53;;;0.90;;
19505;SDS011;9894;50.852;-0.140;2023-05-10T09:07:30;0.20;;;0.20;;
19505;SDS011;9894;50.852;-0.140;2023-05-10T09:09:57;0.10;;;0.10;;
19505;SDS011;9894;50.852;-0.140;2023-05-10T09:12:23;0.85;;;0.65;;
19505;SDS011;9894;50.852;-0.140;2023-05-10T09:14:50;0.20;;;0.20;;
19505;SDS011;9894;50.852;-0.140;2023-05-10T09:17:18;0.10;;;0.10;;
19505;SDS011;9894;50.852;-0.140;2023-05-10T09:19:44;0.57;;;0.57;;
19505;SDS011;9894;50.852;-0.140;2023-05-10T09:22:10;1.05;;;0.63;;
19505;SDS011;9894;50.852;-0.140;2023-05-10T09:24:37;0.63;;;0.63;;
19505;SDS011;9894;50.852;-0.140;2023-05-10T09:27:07;0.30;;;0.30;;
19505;SDS011;9894;50.852;-0.140;2023-05-10T09:29:41;2.67;;;1.63;;
19505;SDS011;9894;50.852;-0.140;2023-05-10T09:32:07;1.77;;;0.57;;
19505;SDS011;9894;50.852;-0.140;2023-05-10T09:34:33;1.75;;;1.42;;
19505;SDS011;9894;50.852;-0.140;2023-05-10T09:37:01;1.52;;;0.93;;
19505;SDS011;9894;50.852;-0.140;2023-05-10T09:39:34;2.28;;;1.20;;
19505;SDS011;9894;50.852;-0.140;2023-05-10T09:42:08;0.40;;;0.40;;
19505;SDS011;9894;50.852;-0.140;2023-05-10T09:44:34;1.13;;;1.00;;
19505;SDS011;9894;50.852;-0.140;2023-05-10T09:47:00;0.90;;;0.80;;
19505;SDS011;9894;50.852;-0.140;2023-05-10T09:49:27;0.60;;;0.60;;
19505;SDS011;9894;50.852;-0.140;2023-05-10T09:52:03;2.70;;;1.60;;
19505;SDS011;9894;50.852;-0.140;2023-05-10T09:54:29;1.10;;;1.10;;
19505;SDS011;9894;50.852;-0.140;2023-05-10T09:56:55;1.30;;;1.30;;
19505;SDS011;9894;50.852;-0.140;2023-05-10T09:59:25;1.42;;;1.42;;
19505;SDS011;9894;50.852;-0.140;2023-05-10T10:01:55;3.20;;;1.75;;
19505;SDS011;9894;50.852;-0.140;2023-05-10T10:04:22;1.98;;;1.90;;
19505;SDS011;9894;50.852;-0.140;2023-05-10T10:06:58;2.28;;;2.17;;
19505;SDS011;9894;50.852;-0.140;2023-05-10T10:09:24;3.25;;;3.05;;
19505;SDS011;9894;50.852;-0.140;2023-05-10T10:11:51;2.90;;;2.80;;
19505;SDS011;9894;50.852;-0.140;2023-05-10T10:14:18;2.88;;;2.78;;
19505;SDS011;9894;50.852;-0.140;2023-05-10T10:16:44;3.47;;;3.28;;
19505;SDS011;9894;50.852;-0.140;2023-05-10T10:19:10;3.42;;;3.22;;
19505;SDS011;9894;50.852;-0.140;2023-05-10T10:21:36;5.43;;;4.10;;
19505;SDS011;9894;50.852;-0.140;2023-05-10T10:24:03;5.45;;;5.15;;
19505;SDS011;9894;50.852;-0.140;2023-05-10T10:26:30;7.28;;;4.93;;
19505;SDS011;9894;50.852;-0.140;2023-05-10T10:29:09;8.57;;;6.28;;
19505;SDS011;9894;50.852;-0.140;2023-05-10T10:31:41;7.20;;;6.70;;
19505;SDS011;9894;50.852;-0.140;2023-05-10T10:34:10;8.73;;;6.60;;
19505;SDS011;9894;50.852;-0.140;2023-05-10T10:36:46;8.68;;;8.07;;
19505;SDS011;9894;50.852;-0.140;2023-05-10T10:39:13;7.63;;;7.13;;
19505;SDS011;9894;50.852;-0.140;2023-05-10T10:41:40;8.00;;;7.50;;
19505;SDS011;9894;50.852;-0.140;2023-05-10T10:49:34;6.50;;;6.10;;
19505;SDS011;9894;50.852;-0.140;2023-05-10T10:52:22;6.28;;;5.88;;
19505;SDS011;9894;50.852;-0.140;2023-05-10T10:57:21;6.10;;;5.70;;
19505;SDS011;9894;50.852;-0.140;2023-05-10T10:59:47;5.65;;;5.20;;
19505;SDS011;9894;50.852;-0.140;2023-05-10T11:02:32;8.18;;;5.80;;
19505;SDS011;9894;50.852;-0.140;2023-05-10T11:04:59;7.00;;;6.40;;
19505;SDS011;9894;50.852;-0.140;2023-05-10T11:07:25;7.75;;;7.07;;
19505;SDS011;9894;50.852;-0.140;2023-05-10T11:09:52;12.75;;;6.32;;
19505;SDS011;9894;50.852;-0.140;2023-05-10T11:12:18;21.90;;;5.35;;
19505;SDS011;9894;50.852;-0.140;2023-05-10T11:14:49;4.40;;;4.00;;
19505;SDS011;9894;50.852;-0.140;2023-05-10T11:17:22;7.70;;;4.72;;
19505;SDS011;9894;50.852;-0.140;2023-05-10T11:20:10;14.32;;;4.93;;
19505;SDS011;9894;50.852;-0.140;2023-05-10T11:22:51;4.80;;;4.50;;
19505;SDS011;9894;50.852;-0.140;2023-05-10T11:25:18;5.95;;;5.55;;
19505;SDS011;9894;50.852;-0.140;2023-05-10T11:27:44;6.40;;;6.00;;
19505;SDS011;9894;50.852;-0.140;2023-05-10T11:30:11;7.47;;;6.78;;
19505;SDS011;9894;50.852;-0.140;2023-05-10T11:32:38;10.98;;;6.40;;
19505;SDS011;9894;50.852;-0.140;2023-05-10T11:35:08;6.40;;;5.90;;
19505;SDS011;9894;50.852;-0.140;2023-05-10T11:37:34;6.85;;;6.30;;
19505;SDS011;9894;50.852;-0.140;2023-05-10T11:40:01;6.20;;;5.80;;
19505;SDS011;9894;50.852;-0.140;2023-05-10T11:42:28;7.05;;;5.90;;
19505;SDS011;9894;50.852;-0.140;2023-05-10T11:44:54;6.32;;;5.32;;
19505;SDS011;9894;50.852;-0.140;2023-05-10T11:47:20;6.43;;;6.03;;
19505;SDS011;9894;50.852;-0.140;2023-05-10T11:49:47;5.80;;;5.30;;
19505;SDS011;9894;50.852;-0.140;2023-05-10T11:52:13;5.30;;;5.00;;
19505;SDS011;9894;50.852;-0.140;2023-05-10T11:54:52;6.30;;;5.90;;
19505;SDS011;9894;50.852;-0.140;2023-05-10T11:57:20;7.95;;;7.35;;
19505;SDS011;9894;50.852;-0.140;2023-05-10T11:59:47;9.10;;;7.03;;
19505;SDS011;9894;50.852;-0.140;2023-05-10T12:02:13;10.93;;;7.80;;
19505;SDS011;9894;50.852;-0.140;2023-05-10T12:04:40;9.10;;;8.30;;
19505;SDS011;9894;50.852;-0.140;2023-05-10T12:07:06;10.00;;;9.02;;
19505;SDS011;9894;50.852;-0.140;2023-05-10T12:09:32;9.55;;;8.80;;
19505;SDS011;9894;50.852;-0.140;2023-05-10T12:11:58;8.60;;;7.93;;
19505;SDS011;9894;50.852;-0.140;2023-05-10T12:14:25;9.60;;;8.90;;
19505;SDS011;9894;50.852;-0.140;2023-05-10T12:16:51;9.95;;;9.25;;
19505;SDS011;9894;50.852;-0.140;2023-05-10T12:19:18;10.50;;;9.70;;
19505;SDS011;9894;50.852;-0.140;2023-05-10T12:21:47;9.70;;;9.00;;
19505;SDS011;9894;50.852;-0.140;2023-05-10T12:24:14;11.20;;;9.18;;
19505;SDS011;9894;50.852;-0.140;2023-05-10T12:26:43;9.80;;;9.10;;
19505;SDS011;9894;50.852;-0.140;2023-05-10T12:29:11;11.40;;;9.98;;
19505;SDS011;9894;50.852;-0.140;2023-05-10T12:34:33;9.60;;;8.90;;
19505;SDS011;9894;50.852;-0.140;2023-05-10T12:37:02;8.80;;;8.20;;
19505;SDS011;9894;50.852;-0.140;2023-05-10T12:39:41;8.77;;;8.07;;
19505;SDS011;9894;50.852;-0.140;2023-05-10T12:42:07;10.15;;;9.35;;
19505;SDS011;9894;50.852;-0.140;2023-05-10T12:44:33;10.80;;;10.05;;
19505;SDS011;9894;50.852;-0.140;2023-05-10T12:46:59;10.13;;;9.23;;
19505;SDS011;9894;50.852;-0.140;2023-05-10T12:49:26;10.35;;;9.55;;
19505;SDS011;9894;50.852;-0.140;2023-05-10T12:51:52;10.10;;;9.10;;
19505;SDS011;9894;50.852;-0.140;2023-05-10T12:54:18;8.60;;;8.00;;
19505;SDS011;9894;50.852;-0.140;2023-05-10T12:56:44;17.58;;;8.98;;
19505;SDS011;9894;50.852;-0.140;2023-05-10T12:59:10;9.35;;;8.63;;
19505;SDS011;9894;50.852;-0.140;2023-05-10T13:01:36;9.82;;;8.90;;
19505;SDS011;9894;50.852;-0.140;2023-05-10T13:04:02;10.80;;;9.52;;
19505;SDS011;9894;50.852;-0.140;2023-05-10T13:06:29;11.98;;;10.80;;
19505;SDS011;9894;50.852;-0.140;2023-05-10T13:08:55;9.70;;;9.00;;
19505;SDS011;9894;50.852;-0.140;2023-05-10T13:11:22;9.10;;;8.50;;
19505;SDS011;9894;50.852;-0.140;2023-05-10T13:13:48;9.10;;;8.50;;
19505;SDS011;9894;50.852;-0.140;2023-05-10T13:16:15;9.45;;;8.65;;
19505;SDS011;9894;50.852;-0.140;2023-05-10T13:18:41;7.20;;;6.70;;
19505;SDS011;9894;50.852;-0.140;2023-05-10T13:21:07;6.50;;;6.10;;
19505;SDS011;9894;50.852;-0.140;2023-05-10T13:23:33;6.07;;;5.68;;
19505;SDS011;9894;50.852;-0.140;2023-05-10T13:26:00;5.60;;;5.20;;
19505;SDS011;9894;50.852;-0.140;2023-05-10T13:28:26;5.90;;;5.45;;
19505;SDS011;9894;50.852;-0.140;2023-05-10T13:30:52;6.10;;;5.05;;
19505;SDS011;9894;50.852;-0.140;2023-05-10T13:33:18;4.72;;;3.90;;
19505;SDS011;9894;50.852;-0.140;2023-05-10T13:35:45;3.10;;;3.00;;
19505;SDS011;9894;50.852;-0.140;2023-05-10T13:38:11;2.25;;;2.15;;
19505;SDS011;9894;50.852;-0.140;2023-05-10T13:40:37;1.85;;;1.75;;
19505;SDS011;9894;50.852;-0.140;2023-05-10T13:43:03;10.02;;;1.73;;
19505;SDS011;9894;50.852;-0.140;2023-05-10T13:45:29;6.35;;;1.73;;
19505;SDS011;9894;50.852;-0.140;2023-05-10T13:47:56;0.80;;;0.80;;
19505;SDS011;9894;50.852;-0.140;2023-05-10T13:50:22;0.85;;;0.82;;
19505;SDS011;9894;50.852;-0.140;2023-05-10T13:52:48;3.13;;;1.80;;
19505;SDS011;9894;50.852;-0.140;2023-05-10T13:55:14;3.08;;;1.90;;
19505;SDS011;9894;50.852;-0.140;2023-05-10T13:57:41;7.18;;;4.03;;
19505;SDS011;9894;50.852;-0.140;2023-05-10T14:00:08;7.72;;;6.85;;
19505;SDS011;9894;50.852;-0.140;2023-05-10T14:02:34;14.05;;;10.63;;
19505;SDS011;9894;50.852;-0.140;2023-05-10T14:05:01;13.45;;;12.32;;
19505;SDS011;9894;50.852;-0.140;2023-05-10T14:07:27;14.43;;;13.30;;
19505;SDS011;9894;50.852;-0.140;2023-05-10T14:09:53;13.85;;;12.50;;
19505;SDS011;9894;50.852;-0.140;2023-05-10T14:12:22;13.55;;;12.55;;
19505;SDS011;9894;50.852;-0.140;2023-05-10T14:14:48;12.15;;;11.35;;
19505;SDS011;9894;50.852;-0.140;2023-05-10T14:17:14;11.43;;;10.63;;
19505;SDS011;9894;50.852;-0.140;2023-05-10T14:19:41;9.73;;;9.02;;
19505;SDS011;9894;50.852;-0.140;2023-05-10T14:22:07;10.32;;;9.52;;
19505;SDS011;9894;50.852;-0.140;2023-05-10T14:24:33;10.90;;;10.10;;
19505;SDS011;9894;50.852;-0.140;2023-05-10T14:26:59;10.65;;;9.95;;
19505;SDS011;9894;50.852;-0.140;2023-05-10T14:29:25;10.20;;;9.50;;
19505;SDS011;9894;50.852;-0.140;2023-05-10T14:31:52;10.55;;;9.60;;
19505;SDS011;9894;50.852;-0.140;2023-05-10T14:34:18;10.70;;;10.00;;
19505;SDS011;9894;50.852;-0.140;2023-05-10T14:36:45;12.13;;;10.45;;
19505;SDS011;9894;50.852;-0.140;2023-05-10T14:39:11;12.55;;;10.98;;
19505;SDS011;9894;50.852;-0.140;2023-05-10T14:41:38;10.82;;;9.85;;
19505;SDS011;9894;50.852;-0.140;2023-05-10T14:44:08;13.07;;;10.35;;
19505;SDS011;9894;50.852;-0.140;2023-05-10T14:46:35;12.73;;;11.77;;
19505;SDS011;9894;50.852;-0.140;2023-05-10T14:49:01;10.23;;;9.52;;
19505;SDS011;9894;50.852;-0.140;2023-05-10T14:51:27;10.63;;;9.70;;
19505;SDS011;9894;50.852;-0.140;2023-05-10T14:53:53;11.90;;;10.35;;
19505;SDS011;9894;50.852;-0.140;2023-05-10T14:56:19;10.48;;;9.68;;
19505;SDS011;9894;50.852;-0.140;2023-05-10T14:58:46;9.90;;;9.10;;
19505;SDS011;9894;50.852;-0.140;2023-05-10T15:01:12;9.90;;;9.10;;
19505;SDS011;9894;50.852;-0.140;2023-05-10T15:03:38;12.05;;;10.98;;
19505;SDS011;9894;50.852;-0.140;2023-05-10T15:06:05;9.70;;;9.00;;
19505;SDS011;9894;50.852;-0.140;2023-05-10T15:08:31;8.70;;;8.00;;
19505;SDS011;9894;50.852;-0.140;2023-05-10T15:10:57;9.30;;;8.70;;
19505;SDS011;9894;50.852;-0.140;2023-05-10T15:13:24;14.00;;;8.90;;
19505;SDS011;9894;50.852;-0.140;2023-05-10T15:15:50;9.68;;;8.95;;
19505;SDS011;9894;50.852;-0.140;2023-05-10T15:18:16;9.30;;;8.70;;